Terminal Aerodrome Forecast
Issued by NWS Nashville, TN

Home | Current Version | Previous Version | Text Only | Print | Product List | Glossary On
Versions: 1 2 3 4 5 6 7 8 9 10 11 12 13 14 15 16 17 18 19 20 21 22 23 24 25 26 27 28 29
139
FTUS44 KOHX 191731
TAFBNA
TAF
KBNA 191731Z 1918/2018 19016G26KT P6SM SCT020 SCT080 BKN250
     FM200300 18011G17KT P6SM SCT100 BKN250 WS020/21050KT
     FM201600 19016G25KT P6SM SCT100 BKN250=

USA.gov is the U.S. government's official web portal to all federal, state and local government web resources and services.